Time;durP1;ratioP1;P1;durP2;ratioP2;P2;SDS_P1;SDS_P2;PMS_P1;PMS_P2;Temp;Humidity;BMP_temperature;BMP_pressure;BME280_temperature;BME280_humidity;BME280_pressure;Samples;Min_cycle;Max_cycle;Signal;HPM_P1;HPM_P2
2021/09/15 00:01:26;;;;;;;12.90;5.85;;;17.60;99.90;;;;;;5003254;28;19918;-78
2021/09/15 00:03:52;;;;;;;;;;;17.50;99.90;;;;;;5004137;28;20042;-78
2021/09/15 00:06:18;;;;;;;11.88;6.82;;;17.50;99.90;;;;;;5003915;28;20057;-78
2021/09/15 00:08:44;;;;;;;;;;;17.60;99.90;;;;;;4988227;28;20475;-78
2021/09/15 00:11:11;;;;;;;13.25;6.97;;;17.60;99.90;;;;;;5006454;28;20403;-78
2021/09/15 00:13:38;;;;;;;11.20;6.50;;;17.50;99.90;;;;;;5020018;28;20041;-78
2021/09/15 00:16:04;;;;;;;8.68;6.97;;;17.50;99.90;;;;;;4986316;28;20042;-78
2021/09/15 00:18:29;;;;;;;;;;;17.50;99.90;;;;;;5002233;28;20072;-78
2021/09/15 00:20:55;;;;;;;14.43;6.95;;;17.50;99.90;;;;;;4982782;28;19971;-78
2021/09/15 00:23:21;;;;;;;;;;;17.50;99.90;;;;;;5004089;28;20693;-79
2021/09/15 00:25:46;;;;;;;16.45;6.78;;;17.50;99.90;;;;;;5036606;28;19926;-78
2021/09/15 00:28:12;;;;;;;;;;;17.50;99.90;;;;;;4986157;28;20072;-78
2021/09/15 00:30:38;;;;;;;10.05;6.30;;;17.40;99.90;;;;;;5036852;28;19917;-78
2021/09/15 00:33:03;;;;;;;;;;;17.50;99.90;;;;;;5002983;28;20038;-78
2021/09/15 00:35:29;;;;;;;9.68;6.80;;;17.40;99.90;;;;;;5035175;28;20007;-79
2021/09/15 00:37:55;;;;;;;;;;;17.40;99.90;;;;;;5004311;28;20483;-79
2021/09/15 00:40:20;;;;;;;17.70;8.43;;;17.40;99.90;;;;;;5034767;28;19932;-79
2021/09/15 00:42:46;;;;;;;;;;;17.40;99.90;;;;;;5034528;28;20041;-78
2021/09/15 00:45:12;;;;;;;9.27;7.30;;;17.40;99.90;;;;;;5000221;28;20704;-79
2021/09/15 00:47:37;;;;;;;;;;;17.40;99.90;;;;;;5002070;28;20056;-79
2021/09/15 00:50:03;;;;;;;11.35;6.40;;;17.40;99.90;;;;;;4983220;28;20299;-78
2021/09/15 00:52:29;;;;;;;;;;;17.40;99.90;;;;;;5003471;28;20045;-79
2021/09/15 00:54:55;;;;;;;10.93;7.32;;;17.40;99.90;;;;;;5034657;28;19922;-79
2021/09/15 00:57:20;;;;;;;;;;;17.40;99.90;;;;;;5002818;28;20046;-79
2021/09/15 00:59:46;;;;;;;8.90;5.70;;;17.40;99.90;;;;;;4986898;28;20017;-79
2021/09/15 01:02:11;;;;;;;;;;;17.50;99.90;;;;;;5003720;28;20042;-79
2021/09/15 01:04:38;;;;;;;8.68;6.43;;;17.50;99.90;;;;;;5036560;28;19962;-79
2021/09/15 01:07:03;;;;;;;10.20;6.78;;;17.40;99.90;;;;;;4988990;28;20038;-79
2021/09/15 01:09:31;;;;;;;;;;;17.40;99.90;;;;;;5003276;28;20065;-79
2021/09/15 01:11:58;;;;;;;11.27;6.97;;;17.50;99.90;;;;;;5001814;28;19964;-79
2021/09/15 01:14:25;;;;;;;8.50;5.85;;;17.40;99.90;;;;;;5001600;28;20177;-79
2021/09/15 01:16:59;;;;;;;9.50;6.85;;;17.40;99.90;;;;;;4986392;28;20029;-79
2021/09/15 01:19:25;;;;;;;7.18;6.25;;;17.40;99.90;;;;;;4999719;28;20516;-79
2021/09/15 01:21:52;;;;;;;12.05;7.97;;;17.40;99.90;;;;;;4986919;28;20129;-79
2021/09/15 01:24:19;;;;;;;11.88;6.05;;;17.40;99.90;;;;;;5001461;28;20054;-79
2021/09/15 01:26:44;;;;;;;11.43;7.00;;;17.40;99.90;;;;;;5002236;28;20065;-79
2021/09/15 01:29:18;;;;;;;;;;;17.30;99.90;;;;;;5002422;28;20042;-77
2021/09/15 01:31:59;;;;;;;8.57;5.18;;;17.20;99.90;;;;;;5033584;28;20063;-78
2021/09/15 01:34:26;;;;;;;6.57;5.85;;;17.20;99.90;;;;;;5001470;28;20046;-78
2021/09/15 01:36:52;;;;;;;12.48;7.20;;;17.10;99.90;;;;;;5001340;28;20050;-78
2021/09/15 01:39:18;;;;;;;8.68;6.85;;;17.10;99.90;;;;;;5003407;28;20369;-78
2021/09/15 01:41:44;;;;;;;;;;;17.10;99.90;;;;;;5002242;28;20054;-78
2021/09/15 01:44:09;;;;;;;10.93;6.60;;;17.00;99.90;;;;;;5000777;28;19960;-78
2021/09/15 01:46:35;;;;;;;;;;;16.90;99.90;;;;;;5002809;28;20050;-78
2021/09/15 01:49:01;;;;;;;11.75;6.68;;;16.90;99.90;;;;;;5033217;28;20410;-78
2021/09/15 01:51:26;;;;;;;;;;;17.00;99.90;;;;;;4986162;28;20100;-78
2021/09/15 01:53:52;;;;;;;8.00;6.63;;;16.90;99.90;;;;;;5001909;28;19932;-78
2021/09/15 01:56:17;;;;;;;;;;;16.90;99.90;;;;;;5002665;28;20064;-78
2021/09/15 01:58:43;;;;;;;7.28;6.13;;;17.00;99.90;;;;;;5033491;28;19917;-78
2021/09/15 02:01:09;;;;;;;;;;;17.00;99.90;;;;;;5002133;28;20045;-78
2021/09/15 02:03:34;;;;;;;14.27;7.50;;;17.00;99.90;;;;;;5033855;28;19956;-78
2021/09/15 02:06:00;;;;;;;;;;;17.00;99.90;;;;;;5002711;28;20052;-78
2021/09/15 02:08:26;;;;;;;9.82;7.38;;;17.10;99.90;;;;;;4998401;28;19921;-78
2021/09/15 02:10:51;;;;;;;;;;;17.10;99.90;;;;;;5002248;28;20175;-78
2021/09/15 02:13:17;;;;;;;17.13;8.93;;;17.10;99.90;;;;;;4984869;28;19972;-78
2021/09/15 02:15:43;;;;;;;;;;;17.20;99.90;;;;;;4987349;28;20074;-78
2021/09/15 02:18:09;;;;;;;9.30;7.75;;;17.10;99.90;;;;;;5034760;28;19964;-78
2021/09/15 02:20:35;;;;;;;;;;;17.20;99.90;;;;;;5003249;28;20053;-77
2021/09/15 02:23:02;;;;;;;7.67;6.87;;;17.20;99.90;;;;;;5002913;28;19936;-77
2021/09/15 02:25:28;;;;;;;14.00;9.18;;;17.10;99.90;;;;;;5001232;28;20062;-77
2021/09/15 02:27:54;;;;;;;;;;;17.10;99.90;;;;;;4986620;28;20501;-78
2021/09/15 02:30:20;;;;;;;11.27;7.32;;;17.10;99.90;;;;;;5015382;28;19979;-78
2021/09/15 02:32:45;;;;;;;;;;;17.10;99.90;;;;;;5000188;28;20469;-78
2021/09/15 02:35:12;;;;;;;14.60;7.38;;;17.00;99.90;;;;;;5034105;28;19960;-77
2021/09/15 02:37:38;;;;;;;14.52;9.25;;;17.00;99.90;;;;;;5034288;28;20045;-78
2021/09/15 02:40:04;;;;;;;;;;;17.00;99.90;;;;;;5008348;28;20046;-76
2021/09/15 02:42:30;;;;;;;12.82;6.80;;;17.00;99.90;;;;;;5005113;28;19948;-77
2021/09/15 02:44:55;;;;;;;;;;;17.00;99.90;;;;;;5006097;28;20033;-78
2021/09/15 02:47:21;;;;;;;14.35;9.07;;;17.00;99.90;;;;;;5004792;28;20267;-78
2021/09/15 02:49:47;;;;;;;;;;;16.90;99.90;;;;;;5005797;28;20075;-78
2021/09/15 02:52:12;;;;;;;13.63;8.90;;;16.90;99.90;;;;;;5036795;28;19925;-77
2021/09/15 02:54:38;;;;;;;;;;;16.90;99.90;;;;;;5008325;28;20034;-77
2021/09/15 02:57:04;;;;;;;18.08;9.55;;;16.90;99.90;;;;;;5037500;28;19933;-77
2021/09/15 02:59:29;;;;;;;;;;;16.90;99.90;;;;;;5005316;28;20073;-77
2021/09/15 03:01:55;;;;;;;13.88;9.52;;;16.90;99.90;;;;;;5005107;28;20011;-78
2021/09/15 03:04:20;;;;;;;;;;;16.90;99.90;;;;;;5004381;28;20056;-78
2021/09/15 03:06:46;;;;;;;17.15;9.75;;;16.90;99.90;;;;;;5006641;28;19948;-78
2021/09/15 03:09:12;;;;;;;;;;;16.80;99.90;;;;;;4988566;28;20501;-78
2021/09/15 03:11:37;;;;;;;15.07;9.18;;;16.80;99.90;;;;;;5037022;28;19974;-78
2021/09/15 03:14:03;;;;;;;16.63;9.57;;;16.80;99.90;;;;;;4988728;28;20099;-78
2021/09/15 03:16:30;;;;;;;;;;;16.80;99.90;;;;;;4990516;28;20038;-78
2021/09/15 03:18:55;;;;;;;13.73;8.48;;;16.80;99.90;;;;;;5021218;28;19918;-77
2021/09/15 03:21:21;;;;;;;;;;;16.80;99.90;;;;;;5004348;28;20042;-78
2021/09/15 03:23:47;;;;;;;15.63;11.20;;;16.80;99.90;;;;;;5005107;28;19925;-77
2021/09/15 03:26:13;;;;;;;;;;;16.70;99.90;;;;;;5037615;28;20077;-78
2021/09/15 03:28:38;;;;;;;18.50;9.88;;;16.70;99.90;;;;;;5005564;28;19964;-79
2021/09/15 03:31:04;;;;;;;;;;;16.70;99.90;;;;;;5004903;28;20037;-78
2021/09/15 03:33:29;;;;;;;15.73;9.15;;;16.60;99.90;;;;;;4972240;28;19917;-78
2021/09/15 03:35:55;;;;;;;;;;;16.60;99.90;;;;;;4987770;28;20050;-78
2021/09/15 03:38:21;;;;;;;20.75;10.30;;;16.60;99.90;;;;;;5004833;28;19953;-78
2021/09/15 03:40:46;;;;;;;;;;;16.60;99.90;;;;;;5004264;28;20041;-79
2021/09/15 03:43:12;;;;;;;15.23;10.85;;;16.60;99.90;;;;;;5036568;28;20295;-79
2021/09/15 03:45:38;;;;;;;;;;;16.50;99.90;;;;;;5004761;28;20037;-79
2021/09/15 03:48:04;;;;;;;15.60;10.57;;;16.60;99.90;;;;;;5003843;28;19925;-77
2021/09/15 03:50:29;;;;;;;;;;;16.60;99.90;;;;;;5003036;28;20068;-78
2021/09/15 03:52:55;;;;;;;16.17;9.15;;;16.50;99.90;;;;;;5004541;28;19961;-78
2021/09/15 03:55:21;;;;;;;;;;;16.50;99.90;;;;;;4988654;28;20091;-77
2021/09/15 03:57:46;;;;;;;14.98;9.32;;;16.50;99.90;;;;;;5005455;28;19955;-78
2021/09/15 04:00:12;;;;;;;;;;;16.50;99.90;;;;;;5005726;28;20068;-78
2021/09/15 04:02:38;;;;;;;13.70;9.77;;;16.50;99.90;;;;;;5036172;28;19921;-78
2021/09/15 04:05:04;;;;;;;;;;;16.40;99.90;;;;;;4994719;28;20427;-79
2021/09/15 04:07:30;;;;;;;17.35;9.60;;;16.40;99.90;;;;;;5003056;28;19925;-78
2021/09/15 04:09:56;;;;;;;21.92;11.73;;;16.50;99.90;;;;;;5036627;28;20034;-78
2021/09/15 04:12:22;;;;;;;19.65;10.00;;;16.40;99.90;;;;;;4988813;28;20124;-78
2021/09/15 04:14:47;;;;;;;;;;;16.40;99.90;;;;;;4971609;28;20810;-79
2021/09/15 04:17:13;;;;;;;16.50;11.02;;;16.30;99.90;;;;;;5004390;28;19917;-78
2021/09/15 04:19:39;;;;;;;;;;;16.30;99.90;;;;;;5002624;28;20375;-78
2021/09/15 04:22:06;;;;;;;20.02;9.80;;;16.30;99.90;;;;;;5003060;28;19927;-78
2021/09/15 04:32:29;;;;;;;21.75;12.18;;;16.30;99.90;;;;;;5002253;28;20388;-77
2021/09/15 04:34:54;;;;;;;23.65;13.15;;;16.40;99.90;;;;;;5003933;28;20042;-77
2021/09/15 04:37:20;;;;;;;;;;;16.40;99.90;;;;;;4991296;28;20038;-78
2021/09/15 04:39:46;;;;;;;17.27;10.57;;;16.50;99.90;;;;;;4988672;28;20413;-78
2021/09/15 04:42:11;;;;;;;;;;;16.40;99.90;;;;;;5006425;28;20077;-77
2021/09/15 04:44:37;;;;;;;28.10;14.02;;;16.40;99.90;;;;;;5019035;28;20358;-78
2021/09/15 04:47:03;;;;;;;;;;;16.40;99.90;;;;;;5015273;28;20137;-76
2021/09/15 04:49:28;;;;;;;21.80;10.93;;;16.40;99.90;;;;;;5003842;28;20003;-78
2021/09/15 04:51:54;;;;;;;;;;;16.40;99.90;;;;;;5034833;28;20050;-78
2021/09/15 04:54:20;;;;;;;17.83;10.52;;;16.30;99.90;;;;;;5020042;28;20346;-78
2021/09/15 04:56:45;;;;;;;;;;;16.30;99.90;;;;;;4986973;28;20045;-78
2021/09/15 04:59:11;;;;;;;20.20;11.50;;;16.30;99.90;;;;;;5002149;28;19917;-78
2021/09/15 05:01:36;;;;;;;;;;;16.30;99.90;;;;;;4985764;28;20053;-79
2021/09/15 05:04:02;;;;;;;17.38;9.82;;;16.20;99.90;;;;;;5034795;28;20283;-78
2021/09/15 05:06:28;;;;;;;;;;;16.20;99.90;;;;;;5005523;28;20105;-79
2021/09/15 05:08:53;;;;;;;19.63;11.90;;;16.20;99.90;;;;;;5032904;28;19948;-78
2021/09/15 05:11:19;;;;;;;;;;;15.90;99.90;;;;;;5008205;28;20046;-78
2021/09/15 05:13:44;;;;;;;27.50;14.60;;;16.20;99.90;;;;;;4987007;28;19922;-79
2021/09/15 05:16:10;;;;;;;;;;;16.20;99.90;;;;;;5007132;28;20488;-78
2021/09/15 05:18:36;;;;;;;20.73;11.00;;;16.20;99.90;;;;;;5034111;28;19921;-79
2021/09/15 05:21:01;;;;;;;;;;;16.10;99.90;;;;;;4972287;28;20487;-79
2021/09/15 05:23:27;;;;;;;19.23;11.60;;;16.10;99.90;;;;;;5035217;28;19929;-79
2021/09/15 05:25:53;;;;;;;;;;;16.10;99.90;;;;;;4988745;28;20059;-79
2021/09/15 05:28:18;;;;;;;24.35;13.60;;;16.10;99.90;;;;;;5002350;28;19932;-78
2021/09/15 05:30:44;;;;;;;;;;;16.20;99.90;;;;;;5001938;28;20502;-78
2021/09/15 05:33:12;;;;;;;16.25;12.68;;;16.20;99.90;;;;;;5034183;28;19928;-78
2021/09/15 05:35:37;;;;;;;22.38;11.63;;;16.20;99.90;;;;;;5033499;28;20058;-79
2021/09/15 05:38:03;;;;;;;25.73;14.48;;;16.20;99.90;;;;;;5004417;28;20475;-79
2021/09/15 05:40:29;;;;;;;;;;;16.20;99.90;;;;;;4994537;28;20415;-79
2021/09/15 05:42:55;;;;;;;20.17;11.05;;;16.20;99.90;;;;;;5031915;28;19925;-78
2021/09/15 05:45:20;;;;;;;;;;;16.30;99.90;;;;;;5002618;28;20492;-78
2021/09/15 05:47:46;;;;;;;18.52;12.15;;;16.40;99.90;;;;;;5002298;28;20267;-79
2021/09/15 05:50:12;;;;;;;;;;;16.50;99.90;;;;;;5003405;28;20069;-79
2021/09/15 05:52:37;;;;;;;23.50;13.35;;;16.50;99.90;;;;;;5001684;28;20024;-78
2021/09/15 05:55:03;;;;;;;;;;;16.60;99.90;;;;;;4986767;28;20068;-78
2021/09/15 05:57:29;;;;;;;18.98;12.48;;;16.70;99.90;;;;;;5034988;28;20028;-80
2021/09/15 05:59:54;;;;;;;;;;;16.70;99.90;;;;;;5003274;28;20061;-79
2021/09/15 06:02:20;;;;;;;16.77;10.27;;;16.80;99.90;;;;;;5002568;28;19918;-80
2021/09/15 06:04:45;;;;;;;;;;;16.80;99.90;;;;;;4996223;28;20491;-78
2021/09/15 06:07:11;;;;;;;23.13;12.35;;;16.90;99.90;;;;;;5001864;28;20379;-79
2021/09/15 06:09:37;;;;;;;;;;;16.90;99.90;;;;;;4985514;28;20042;-78
2021/09/15 06:12:03;;;;;;;22.85;12.20;;;17.00;99.90;;;;;;4984513;28;20011;-75
2021/09/15 06:14:28;;;;;;;;;;;17.00;99.90;;;;;;4986593;28;20046;-75
2021/09/15 06:16:54;;;;;;;17.98;10.93;;;17.10;99.90;;;;;;5001550;28;19975;-76
2021/09/15 06:19:20;;;;;;;17.67;11.07;;;17.20;99.90;;;;;;5004000;28;20468;-76
2021/09/15 06:21:45;;;;;;;;;;;17.20;99.90;;;;;;5004929;28;20042;-77
2021/09/15 06:24:13;;;;;;;16.58;11.20;;;17.30;99.90;;;;;;5004798;28;20398;-77
2021/09/15 06:26:39;;;;;;;26.98;15.43;;;17.30;99.90;;;;;;5001880;28;20065;-79
2021/09/15 06:29:04;;;;;;;;;;;17.40;99.90;;;;;;5002763;28;20046;-76
2021/09/15 06:31:30;;;;;;;23.15;13.45;;;17.50;99.90;;;;;;5034569;28;19940;-80
2021/09/15 06:33:56;;;;;;;;;;;17.60;99.90;;;;;;4971321;28;20039;-77
2021/09/15 06:36:22;;;;;;;24.27;11.48;;;17.60;99.90;;;;;;5036229;28;19953;-77
2021/09/15 06:38:48;;;;;;;19.63;12.55;;;17.70;99.90;;;;;;5001728;28;20046;-76
2021/09/15 06:41:15;;;;;;;;;;;17.70;99.90;;;;;;5003329;28;20042;-77
2021/09/15 06:43:41;;;;;;;15.05;9.82;;;17.70;99.90;;;;;;5017755;28;19921;-78
2021/09/15 06:46:07;;;;;;;16.77;11.55;;;17.70;99.90;;;;;;5005854;28;20075;-77
2021/09/15 06:48:32;;;;;;;;;;;17.80;99.90;;;;;;4994345;28;20468;-79
2021/09/15 06:50:58;;;;;;;20.35;12.63;;;17.80;99.90;;;;;;5003733;28;20366;-78
2021/09/15 06:53:24;;;;;;;;;;;17.90;99.90;;;;;;5003535;28;20037;-78
2021/09/15 06:55:50;;;;;;;22.25;13.90;;;17.90;99.90;;;;;;5034635;28;20352;-78
2021/09/15 06:58:16;;;;;;;21.92;10.70;;;17.90;99.90;;;;;;5001735;28;20049;-80
2021/09/15 07:00:41;;;;;;;;;;;17.90;99.90;;;;;;5001705;28;20056;-77
2021/09/15 07:03:07;;;;;;;16.17;10.68;;;18.00;99.90;;;;;;5038950;28;19985;-78
2021/09/15 07:05:33;;;;;;;;;;;18.00;99.90;;;;;;5002035;28;20053;-81
2021/09/15 07:07:58;;;;;;;17.80;10.77;;;18.10;99.90;;;;;;5001895;28;19921;-79
2021/09/15 07:10:24;;;;;;;;;;;18.10;99.90;;;;;;5011180;28;20054;-79
2021/09/15 07:12:49;;;;;;;29.55;13.88;;;18.20;99.90;;;;;;5042500;28;19921;-80
2021/09/15 07:15:16;;;;;;;;;;;18.20;99.90;;;;;;5009294;28;20550;-79
2021/09/15 07:17:45;;;;;;;24.98;10.90;;;18.20;99.90;;;;;;5009098;28;19921;-80
2021/09/15 07:20:15;;;;;;;23.85;11.80;;;18.30;99.90;;;;;;5006817;28;20046;-80
2021/09/15 07:22:41;;;;;;;18.52;11.45;;;18.30;99.90;;;;;;4970067;28;20048;-79
2021/09/15 07:25:07;;;;;;;23.60;11.40;;;18.30;99.90;;;;;;5008841;28;20122;-76
2021/09/15 07:27:33;;;;;;;18.90;12.10;;;18.30;99.90;;;;;;5008995;28;20061;-76
2021/09/15 07:29:59;;;;;;;20.42;12.40;;;18.40;99.90;;;;;;5002475;28;20054;-76
2021/09/15 07:32:25;;;;;;;;;;;18.40;99.90;;;;;;5011925;28;20042;-76
2021/09/15 07:34:51;;;;;;;19.02;11.63;;;18.50;99.90;;;;;;5039426;28;19979;-80
2021/09/15 07:37:17;;;;;;;;;;;18.50;99.90;;;;;;5008186;28;20387;-79
2021/09/15 07:39:43;;;;;;;18.73;10.88;;;18.50;99.90;;;;;;5042253;28;20334;-78
2021/09/15 07:42:09;;;;;;;;;;;18.60;99.90;;;;;;5007806;28;20084;-78
2021/09/15 07:44:34;;;;;;;16.23;10.10;;;18.70;99.90;;;;;;4997437;28;19925;-78
2021/09/15 07:47:00;;;;;;;;;;;18.70;99.90;;;;;;5005529;28;20105;-79
2021/09/15 07:49:28;;;;;;;20.15;12.13;;;18.80;99.90;;;;;;5007508;28;19929;-79
2021/09/15 07:51:53;;;;;;;18.90;12.05;;;18.80;99.90;;;;;;5008720;28;20073;-79
2021/09/15 07:54:19;;;;;;;20.65;10.45;;;18.90;99.90;;;;;;5009740;28;20082;-79
2021/09/15 07:56:45;;;;;;;;;;;19.00;99.90;;;;;;5011059;28;20450;-78
2021/09/15 07:59:10;;;;;;;16.58;9.65;;;19.10;99.90;;;;;;5040780;28;19964;-78
2021/09/15 08:01:36;;;;;;;;;;;19.20;99.90;;;;;;5009134;28;20042;-78
2021/09/15 08:04:03;;;;;;;18.23;11.50;;;19.00;99.90;;;;;;5011175;28;20530;-78
2021/09/15 08:06:29;;;;;;;25.45;11.77;;;19.00;99.90;;;;;;5011608;28;20145;-76
2021/09/15 08:08:55;;;;;;;21.40;11.88;;;19.00;99.90;;;;;;5007014;28;20775;-78
2021/09/15 08:11:21;;;;;;;17.40;11.48;;;19.10;99.90;;;;;;5009559;28;20065;-78
2021/09/15 08:13:47;;;;;;;21.65;12.65;;;19.10;99.90;;;;;;5033638;28;20472;-77
2021/09/15 08:16:13;;;;;;;20.35;11.65;;;19.30;99.90;;;;;;5009582;28;20169;-78
2021/09/15 08:18:39;;;;;;;16.40;10.05;;;19.40;99.90;;;;;;5007875;28;20077;-79
2021/09/15 08:21:07;;;;;;;17.63;10.88;;;19.60;99.90;;;;;;5011277;28;20037;-81
2021/09/15 08:23:33;;;;;;;19.92;12.20;;;19.80;99.90;;;;;;5010407;28;20133;-78
2021/09/15 08:25:59;;;;;;;;;;;20.00;99.90;;;;;;4973688;28;20468;-79
2021/09/15 08:28:25;;;;;;;21.15;12.52;;;20.10;99.90;;;;;;5006704;28;20415;-78
2021/09/15 08:30:50;;;;;;;;;;;20.40;99.90;;;;;;5007283;28;20763;-80
2021/09/15 08:33:16;;;;;;;17.63;11.98;;;20.60;99.90;;;;;;5005244;28;19948;-78
2021/09/15 08:35:42;;;;;;;17.02;11.13;;;20.80;99.90;;;;;;5006604;28;20519;-79
2021/09/15 08:38:12;;;;;;;20.88;12.00;;;21.00;99.90;;;;;;5008667;28;20038;-80
2021/09/15 08:40:40;;;;;;;22.17;11.40;;;21.10;99.90;;;;;;5008425;28;20381;-77
2021/09/15 08:43:06;;;;;;;21.98;11.32;;;21.10;99.90;;;;;;5036275;28;20651;-79
2021/09/15 08:45:33;;;;;;;21.33;11.35;;;21.10;99.90;;;;;;5008431;28;20464;-79
2021/09/15 08:48:02;;;;;;;24.88;12.32;;;21.10;99.90;;;;;;5006497;28;20048;-79
2021/09/15 08:50:28;;;;;;;22.67;10.88;;;21.10;99.90;;;;;;4988927;28;20451;-78
2021/09/15 08:52:54;;;;;;;17.83;11.23;;;21.20;99.90;;;;;;4995696;28;20130;-80
2021/09/15 08:55:20;;;;;;;18.88;10.65;;;21.20;99.90;;;;;;5004663;28;20124;-79
2021/09/15 08:57:46;;;;;;;25.67;10.63;;;21.20;99.90;;;;;;4998411;28;20041;-79
2021/09/15 09:00:12;;;;;;;19.38;11.50;;;21.20;99.90;;;;;;4989687;28;20050;-80
2021/09/15 09:02:41;;;;;;;20.27;11.07;;;21.20;99.90;;;;;;5011227;28;20088;-80
2021/09/15 09:05:07;;;;;;;21.65;11.75;;;21.20;99.90;;;;;;5007326;28;20468;-78
2021/09/15 09:07:34;;;;;;;17.20;11.40;;;21.40;99.90;;;;;;4984632;28;20042;-78
2021/09/15 09:10:08;;;;;;;18.13;10.68;;;21.40;99.90;;;;;;4988028;28;20078;-80
2021/09/15 09:12:36;;;;;;;21.65;11.35;;;21.40;99.90;;;;;;5008449;28;20096;-77
2021/09/15 09:15:25;;;;;;;15.75;9.45;;;21.30;99.90;;;;;;5005406;28;21192;-76
2021/09/15 09:17:53;;;;;;;20.83;11.50;;;21.20;99.90;;;;;;4993996;28;20050;-78
2021/09/15 09:20:23;;;;;;;22.40;10.20;;;21.10;99.90;;;;;;4992436;28;20482;-76
2021/09/15 09:23:16;;;;;;;19.42;11.38;;;21.00;99.90;;;;;;5001751;28;20049;-78
2021/09/15 09:25:51;;;;;;;19.38;10.85;;;21.00;99.90;;;;;;5002774;28;20050;-77
2021/09/15 09:28:33;;;;;;;16.75;10.73;;;20.90;99.90;;;;;;4991020;28;20042;-78
2021/09/15 09:31:04;;;;;;;22.02;10.75;;;20.90;99.90;;;;;;5005953;28;20053;-78
2021/09/15 09:33:31;;;;;;;21.83;11.70;;;20.80;99.90;;;;;;4988521;28;20053;-78
2021/09/15 09:36:00;;;;;;;26.67;12.50;;;20.80;99.90;;;;;;5008375;28;20057;-79
2021/09/15 09:38:30;;;;;;;13.65;9.07;;;20.90;99.90;;;;;;5008000;28;20554;-78
2021/09/15 09:41:15;;;;;;;18.05;10.65;;;20.90;99.90;;;;;;5001973;28;20527;-81
2021/09/15 09:43:47;;;;;;;22.52;12.48;;;20.90;99.90;;;;;;4996761;28;20043;-76
2021/09/15 09:46:24;;;;;;;22.40;11.32;;;20.80;99.90;;;;;;5009037;28;20125;-74
2021/09/15 09:48:54;;;;;;;;;;;20.80;99.90;;;;;;4976153;28;20040;-77
2021/09/15 09:51:34;;;;;;;19.85;10.63;;;20.80;99.90;;;;;;4995842;28;19921;-77
2021/09/15 09:54:26;;;;;;;20.08;11.25;;;21.00;99.90;;;;;;5011499;28;20041;-77
2021/09/15 09:56:54;;;;;;;22.00;10.25;;;21.10;99.90;;;;;;5011915;28;20057;-76
2021/09/15 09:59:21;;;;;;;22.92;10.75;;;21.20;99.90;;;;;;5011331;28;20457;-78
2021/09/15 10:01:49;;;;;;;24.13;11.55;;;21.40;99.90;;;;;;5027396;28;20050;-79
2021/09/15 10:04:16;;;;;;;19.85;10.07;;;21.60;99.90;;;;;;4993992;28;20150;-78
2021/09/15 10:06:43;;;;;;;26.77;10.98;;;21.80;99.90;;;;;;5031816;28;20053;-78
2021/09/15 10:09:10;;;;;;;22.02;9.57;;;21.80;99.90;;;;;;5008881;28;20038;-81
2021/09/15 10:11:37;;;;;;;22.85;11.10;;;21.90;99.90;;;;;;5044162;28;20105;-78
2021/09/15 10:14:05;;;;;;;21.88;10.27;;;21.90;99.90;;;;;;5009108;28;20046;-78
2021/09/15 10:16:34;;;;;;;23.85;10.27;;;21.90;99.90;;;;;;5028615;28;20053;-78
2021/09/15 10:19:06;;;;;;;16.30;10.40;;;22.00;99.90;;;;;;5009099;28;20049;-80
2021/09/15 10:21:35;;;;;;;25.38;11.10;;;22.10;99.90;;;;;;4976445;28;20084;-75
2021/09/15 10:24:03;;;;;;;19.17;11.32;;;22.30;99.90;;;;;;5010025;28;20052;-76
2021/09/15 10:26:40;;;;;;;22.38;9.77;;;22.10;99.90;;;;;;5002801;28;20054;-79
2021/09/15 10:29:16;;;;;;;20.13;10.23;;;22.10;99.90;;;;;;5006189;28;20491;-80
2021/09/15 10:32:02;;;;;;;;;;;22.10;99.90;;;;;;5007699;28;20045;-78
2021/09/15 10:34:40;;;;;;;16.50;8.73;;;22.20;99.90;;;;;;5009375;28;19944;-76
2021/09/15 10:37:12;;;;;;;18.77;9.55;;;22.10;99.90;;;;;;5003937;28;20057;-77
2021/09/15 10:39:57;;;;;;;16.55;9.20;;;22.00;99.90;;;;;;5005529;28;20431;-78
2021/09/15 10:42:48;;;;;;;20.05;8.93;;;21.90;99.90;;;;;;5010678;28;20044;-80
2021/09/15 10:45:14;;;;;;;12.02;7.53;;;21.80;99.90;;;;;;4987974;28;20042;-77
2021/09/15 10:47:41;;;;;;;15.45;9.15;;;21.60;99.90;;;;;;5008948;28;20053;-77
2021/09/15 10:50:09;;;;;;;15.95;7.85;;;21.60;99.90;;;;;;5009656;28;20038;-77
2021/09/15 10:52:40;;;;;;;14.43;8.70;;;21.50;99.90;;;;;;4992559;28;20073;-79
2021/09/15 10:55:21;;;;;;;15.25;8.18;;;21.40;99.90;;;;;;5012642;28;20089;-76
2021/09/15 10:57:48;;;;;;;15.52;7.18;;;21.20;99.90;;;;;;5001880;28;20046;-80
2021/09/15 11:00:17;;;;;;;15.18;7.88;;;21.10;99.90;;;;;;5003509;28;20084;-79
2021/09/15 11:02:46;;;;;;;18.65;8.90;;;21.10;99.90;;;;;;5005062;28;20526;-78
2021/09/15 11:05:27;;;;;;;15.35;8.68;;;21.10;99.90;;;;;;4989534;28;20172;-79
2021/09/15 11:07:58;;;;;;;15.18;9.13;;;21.10;99.90;;;;;;4994289;28;20056;-80
2021/09/15 11:13:06;;;;;;;19.65;8.43;;;21.00;99.90;;;;;;5007143;28;20042;-79
2021/09/15 11:15:45;;;;;;;13.75;7.43;;;21.20;99.90;;;;;;5013193;28;20451;-75
2021/09/15 11:18:28;;;;;;;11.25;7.40;;;21.50;99.90;;;;;;4988383;28;20046;-76
2021/09/15 11:21:10;;;;;;;13.52;7.07;;;21.80;99.90;;;;;;5014737;28;20056;-77
2021/09/15 11:23:35;;;;;;;16.80;7.93;;;22.10;99.90;;;;;;5007504;28;20050;-81
2021/09/15 11:26:03;;;;;;;12.52;6.55;;;22.40;99.90;;;;;;4993646;28;20052;-80
2021/09/15 11:28:28;;;;;;;17.58;7.35;;;22.40;99.90;;;;;;5009613;28;20140;-82
2021/09/15 11:31:02;;;;;;;14.23;6.68;;;22.30;99.90;;;;;;4988203;28;20524;-80
2021/09/15 11:33:35;;;;;;;14.80;7.55;;;22.20;99.90;;;;;;5019512;28;20045;-78
2021/09/15 11:36:04;;;;;;;12.80;6.32;;;22.10;99.90;;;;;;4996818;28;20530;-79
2021/09/15 11:38:33;;;;;;;9.73;5.88;;;22.20;99.90;;;;;;5010723;28;20050;-78
2021/09/15 11:41:06;;;;;;;11.55;4.85;;;22.30;99.90;;;;;;5007975;28;20073;-80
2021/09/15 11:43:32;;;;;;;13.85;6.75;;;22.50;99.90;;;;;;5000409;28;20046;-78
2021/09/15 11:45:58;;;;;;;13.13;7.55;;;22.60;99.90;;;;;;5003785;28;20391;-80
2021/09/15 11:48:32;;;;;;;13.85;7.18;;;22.70;99.90;;;;;;5005215;28;20042;-77
2021/09/15 11:50:58;;;;;;;10.00;5.82;;;22.80;99.90;;;;;;5009844;28;20042;-77
2021/09/15 11:53:27;;;;;;;12.95;6.10;;;22.90;99.90;;;;;;5011722;28;20092;-78
2021/09/15 11:58:25;;;;;;;11.52;5.85;;;22.80;99.90;;;;;;5008419;28;20496;-79
2021/09/15 12:00:51;;;;;;;10.77;6.38;;;22.80;99.90;;;;;;5005824;28;20050;-78
2021/09/15 12:03:26;;;;;;;11.02;6.05;;;22.70;99.90;;;;;;5037163;28;20068;-75
2021/09/15 12:05:53;;;;;;;10.82;5.60;;;22.80;99.90;;;;;;5016164;28;20042;-77
2021/09/15 12:08:19;;;;;;;16.30;7.15;;;22.90;99.90;;;;;;5013191;28;20030;-78
2021/09/15 12:10:46;;;;;;;10.07;6.20;;;23.30;99.90;;;;;;5005182;28;20429;-76
2021/09/15 12:13:13;;;;;;;9.43;6.35;;;23.30;99.90;;;;;;4989807;28;20505;-77
2021/09/15 12:15:49;;;;;;;9.02;6.07;;;23.60;99.90;;;;;;5004750;28;20075;-79
2021/09/15 12:18:22;;;;;;;15.18;6.80;;;23.60;99.90;;;;;;4990532;28;20161;-76
2021/09/15 12:20:50;;;;;;;10.23;6.28;;;23.60;99.90;;;;;;4976774;28;20038;-75
2021/09/15 12:23:18;;;;;;;11.40;6.60;;;23.60;99.90;;;;;;5000792;28;20034;-78
2021/09/15 12:25:52;;;;;;;7.45;4.63;;;23.70;99.90;;;;;;5000295;28;20121;-80
2021/09/15 12:28:28;;;;;;;7.60;4.75;;;23.80;99.90;;;;;;4998806;28;20522;-79
2021/09/15 12:30:55;;;;;;;18.65;7.15;;;23.80;99.90;;;;;;4980300;28;20130;-77
2021/09/15 12:33:24;;;;;;;10.63;5.70;;;23.60;99.90;;;;;;5000957;28;20065;-80
2021/09/15 12:36:14;;;;;;;9.45;7.07;;;23.50;99.90;;;;;;4981652;28;20080;-78
2021/09/15 12:38:55;;;;;;;14.23;7.57;;;23.30;99.90;;;;;;5009709;28;20038;-83
2021/09/15 12:41:21;;;;;;;10.95;5.38;;;23.10;99.90;;;;;;5002003;28;20050;-77
2021/09/15 12:43:48;;;;;;;7.75;5.32;;;23.00;99.90;;;;;;4990095;28;20060;-77
2021/09/15 12:46:31;;;;;;;14.40;7.78;;;23.10;99.90;;;;;;4986335;28;20045;-78
2021/09/15 12:48:58;;;;;;;13.68;7.45;;;22.90;99.90;;;;;;5042313;28;20053;-77
2021/09/15 12:51:29;;;;;;;14.25;6.97;;;22.80;99.90;;;;;;4985242;28;20041;-78
2021/09/15 12:54:04;;;;;;;11.85;7.18;;;22.70;99.90;;;;;;4998500;28;20077;-79
2021/09/15 12:56:35;;;;;;;15.38;7.63;;;22.70;99.90;;;;;;5002629;28;20569;-79
2021/09/15 12:59:02;;;;;;;10.85;7.05;;;22.90;99.90;;;;;;5015439;28;20060;-79
2021/09/15 13:01:28;;;;;;;14.63;6.63;;;22.90;99.90;;;;;;4994313;28;20054;-76
2021/09/15 13:03:55;;;;;;;11.35;5.80;;;22.90;99.90;;;;;;5003681;28;20076;-77
2021/09/15 13:06:23;;;;;;;12.15;6.88;;;22.90;99.90;;;;;;4992570;28;20554;-76
2021/09/15 13:08:51;;;;;;;7.05;4.90;;;22.90;99.90;;;;;;5030523;28;20042;-79
2021/09/15 13:11:17;;;;;;;10.05;6.05;;;22.80;99.90;;;;;;4998733;28;20038;-77
2021/09/15 13:13:43;;;;;;;10.75;5.70;;;22.60;99.90;;;;;;4966092;28;20125;-77